Date,TemperatureHighF,TemperatureAvgF,TemperatureLowF,DewpointHighF,DewpointAvgF,DewpointLowF,HumidityHigh,HumidityAvg,HumidityLow,PressureMaxIn,PressureMinIn,WindSpeedMaxMPH,WindSpeedAvgMPH,GustSpeedMaxMPH,PrecipitationSumIn
2014-1-1,70.3,49.6,31.3,44.7,35.1,25.2,88,61,34,30.05,29.74,22,7,0,0.00
2014-1-2,47.5,34.1,25.3,23.6,20.2,17.6,75,58,34,30.34,30.06,21,6,0,0.00
2014-1-3,58.6,39.2,21.7,24.7,19.6,15.8,86,52,21,30.26,29.83,14,4,0,0.00
2014-1-4,73.4,53.5,35.1,45.6,39.9,23.6,86,62,36,29.82,29.56,16,4,0,0.00
2014-1-5,52.2,33.8,24.1,43.1,18.9,9.4,72,55,39,30.32,29.61,21,10,0,0.00
2014-1-6,33.4,21.3,13.1,9.7,4.9,1.1,67,50,30,30.59,30.33,10,4,0,0.00
2014-1-7,50.2,32.2,14.9,25.2,13.8,7.7,75,50,24,30.39,30.05,10,3,0,0.00
2014-1-8,63.3,47.9,40.1,46.2,38.7,25.2,97,71,52,30.05,29.83,16,4,0,0.00
2014-1-9,60.1,44.0,33.3,53.0,40.6,33.0,99,89,59,30.03,29.78,7,2,0,0.00
2014-1-10,70.9,57.8,44.8,59.0,48.6,32.2,98,75,35,29.77,29.54,14,3,0,0.01
2014-1-11,68.9,49.4,33.8,35.1,27.8,20.8,82,49,18,30.01,29.67,7,2,0,0.00
2014-1-12,74.5,56.1,37.9,46.1,34.8,25.5,75,47,23,29.90,29.61,17,5,0,0.00
2014-1-13,63.5,51.2,34.2,47.2,25.1,11.2,83,41,13,29.98,29.66,15,5,0,0.00
2014-1-14,64.2,45.2,26.2,31.2,22.5,17.5,74,45,18,30.23,29.87,15,5,0,0.00
2014-1-15,61.2,43.2,25.5,23.9,20.8,15.8,70,43,22,30.30,29.93,11,2,0,0.00
2014-1-16,70.5,46.9,28.9,29.7,25.5,21.7,75,47,17,30.07,29.86,15,2,0,0.00
2014-1-17,59.4,42.9,28.9,25.7,19.9,14.6,76,45,19,30.23,30.04,9,2,0,0.00
2014-1-18,69.8,48.1,27.5,36.7,27.1,18.7,69,46,26,30.04,29.88,10,3,0,0.00
2014-1-19,70.5,48.9,28.9,31.0,25.5,21.9,82,46,17,30.16,29.88,7,2,0,0.00
2014-1-20,74.7,55.4,36.1,41.0,27.6,20.2,73,39,15,30.10,29.71,16,6,0,0.00
2014-1-21,57.0,44.7,34.5,23.6,21.4,18.4,54,41,25,30.32,30.00,10,3,0,0.00
2014-1-22,71.8,47.6,24.6,30.7,23.8,18.7,79,45,17,30.00,29.76,7,2,0,0.00
2014-1-23,47.7,34.5,24.6,30.5,11.4,-5.8,53,39,24,30.56,29.87,22,11,0,0.00
2014-1-24,43.3,29.4,20.7,15.2,0.5,-5.0,58,30,13,30.56,30.11,11,5,0,0.00
2014-1-25,71.8,46.8,26.2,30.7,21.1,14.1,61,39,18,30.11,29.80,5,1,0,0.00
2014-1-26,79.2,57.9,40.6,33.3,24.6,16.3,55,31,11,29.78,29.46,17,4,0,0.00
2014-1-27,51.3,37.2,27.9,28.0,8.2,-5.9,59,31,21,30.12,29.64,17,10,0,0.00
2014-1-28,36.0,26.8,18.0,5.9,-1.2,-4.9,44,30,18,30.31,30.09,14,7,0,0.00
2014-1-29,49.6,31.3,11.7,15.7,10.0,4.1,75,44,21,30.25,29.95,11,3,0,0.00
2014-1-30,65.8,46.5,28.0,39.5,29.0,12.6,67,51,36,29.96,29.60,21,6,0,0.00
2014-1-31,81.0,60.1,39.9,51.6,44.5,37.3,97,61,30,29.71,29.55,10,4,0,0.00
2014-2-1,60.6,53.7,43.3,55.2,42.5,30.3,84,67,47,29.78,29.54,16,6,0,0.00
2014-2-2,43.9,31.9,28.2,29.7,26.2,23.9,87,80,57,30.08,29.78,14,9,0,0.12
2014-2-3,39.4,33.8,27.9,34.7,30.0,23.7,92,86,77,30.09,29.75,9,4,0,0.01
2014-2-4,62.6,44.9,36.5,41.4,37.7,31.2,98,79,42,29.96,29.64,14,4,0,0.06
2014-2-5,37.6,27.4,20.5,30.7,18.0,12.0,78,67,56,30.35,29.97,17,10,0,0.00
2014-2-6,22.1,19.4,15.6,13.1,11.0,7.7,75,69,64,30.37,30.17,12,6,0,0.00
2014-2-7,33.1,26.3,20.3,28.5,19.8,13.2,90,76,66,30.18,29.98,6,3,0,0.00
2014-2-8,73.4,48.4,29.8,37.6,31.6,28.2,97,61,20,30.00,29.75,14,3,0,0.00
2014-2-9,77.9,50.7,32.9,38.9,33.1,26.1,89,56,22,29.91,29.71,15,4,0,0.00
2014-2-10,39.0,30.9,25.7,36.7,28.4,23.6,94,90,86,30.10,29.91,13,8,0,0.00
2014-2-11,28.4,26.7,25.2,26.1,24.6,23.5,94,91,89,30.15,30.02,10,6,0,0.00
2014-2-12,55.8,37.9,27.7,33.4,29.1,25.4,92,73,41,30.05,29.87,10,2,0,0.00
2014-2-13,74.3,49.6,27.0,36.7,31.5,24.5,94,57,23,29.87,29.65,10,2,0,0.00
2014-2-14,72.7,55.4,36.9,37.9,30.4,24.2,76,43,22,29.93,29.59,19,5,0,0.00
2014-2-15,79.7,54.7,30.0,38.4,30.7,23.3,77,44,21,29.97,29.75,15,3,0,0.00
2014-2-16,80.8,59.7,40.5,58.0,49.5,36.2,97,71,43,29.86,29.67,10,3,0,0.00
2014-2-17,75.6,61.3,47.5,55.1,33.4,17.1,99,48,12,30.00,29.72,20,5,0,0.00
2014-2-18,82.9,61.2,40.3,57.2,43.0,23.6,83,52,34,29.95,29.65,16,3,0,0.00
2014-2-19,81.5,65.1,53.1,62.1,57.6,52.6,99,79,49,29.74,29.47,14,4,0,0.00
2014-2-20,73.2,60.8,38.5,59.8,40.2,20.8,91,54,14,29.94,29.46,18,6,0,0.00
2014-2-21,70.3,50.2,27.7,29.2,23.7,20.9,80,42,16,30.01,29.76,11,3,0,0.00
2014-2-22,84.0,61.7,44.4,50.9,39.4,24.4,74,46,24,29.81,29.58,12,5,0,0.00
2014-2-23,74.8,59.1,47.1,56.7,44.2,34.2,98,64,24,29.92,29.67,12,4,0,0.00
2014-2-24,72.7,55.9,43.2,53.6,44.1,35.8,76,65,50,29.98,29.78,7,3,0,0.00
2014-2-25,57.9,50.0,41.9,56.8,46.5,32.5,96,88,69,29.96,29.79,11,6,0,0.02
2014-2-26,44.4,36.0,27.1,32.9,19.9,14.1,77,53,33,30.16,29.95,20,8,0,0.00
2014-2-27,62.1,42.2,20.5,35.9,24.0,14.7,81,52,28,29.99,29.62,9,3,0,0.00
2014-2-28,85.1,60.1,36.7,42.2,29.0,17.4,83,42,9,29.66,29.52,22,5,0,0.00
2014-3-1,90.5,67.6,42.3,60.7,44.5,24.5,71,46,23,29.78,29.59,14,5,0,0.00
2014-3-2,69.6,29.4,18.0,60.2,24.2,12.0,88,81,70,30.17,29.71,17,11,0,0.00
2014-3-3,39.4,25.9,13.5,16.8,12.2,7.1,77,58,38,30.27,30.05,14,7,0,0.00
2014-3-4,60.8,41.6,24.4,33.3,23.2,15.5,70,50,28,30.07,29.74,8,3,0,0.00
2014-3-5,63.7,49.1,37.4,43.7,37.4,32.3,83,65,45,30.02,29.74,12,5,0,0.00
2014-3-6,66.2,47.4,38.8,37.8,33.5,30.7,78,61,28,30.11,29.84,9,4,0,0.00
2014-3-7,75.2,55.9,39.6,42.7,38.1,31.4,78,55,27,29.85,29.59,12,5,0,0.00
2014-3-8,52.9,46.8,39.4,44.3,35.0,27.9,79,64,50,30.14,29.64,17,7,0,0.00
2014-3-9,68.5,48.2,33.6,37.7,31.9,26.3,76,56,30,30.19,29.99,12,4,0,0.00
2014-3-10,77.5,57.6,37.9,52.6,41.3,31.6,82,58,32,30.03,29.68,10,2,0,0.00
2014-3-11,88.5,67.6,51.1,52.4,41.8,13.8,92,52,7,29.69,29.34,19,6,0,0.00
2014-3-12,61.3,50.7,39.9,33.1,24.8,18.1,62,39,20,30.17,29.71,21,11,0,0.00
2014-3-13,72.0,50.7,25.5,25.7,20.9,17.6,74,37,14,30.18,29.85,11,3,0,0.00
2014-3-14,79.5,60.0,40.8,50.7,40.3,23.8,72,50,30,29.86,29.70,14,4,0,0.00
2014-3-15,77.7,64.2,55.4,59.3,54.3,49.8,88,72,45,29.75,29.43,15,4,0,0.01
2014-3-16,56.8,49.6,44.2,53.6,37.9,29.9,89,65,51,29.92,29.58,22,12,0,0.00
2014-3-17,72.1,51.0,27.9,29.9,24.6,21.0,77,41,16,29.92,29.46,12,4,0,0.00
2014-3-18,90.1,67.7,44.6,31.8,20.4,-0.7,47,22,5,29.71,29.38,17,7,0,0.00
2014-3-19,67.3,54.6,42.3,29.0,26.2,20.1,53,35,20,30.06,29.73,14,7,0,0.00
2014-3-20,78.8,57.2,32.5,33.9,27.3,24.5,74,38,15,30.06,29.78,10,3,0,0.00
2014-3-21,80.4,65.9,52.0,56.9,47.6,34.3,65,52,39,29.80,29.59,16,5,0,0.00
2014-3-22,64.8,59.7,50.9,54.4,48.3,38.4,83,67,56,29.92,29.67,11,4,0,0.00
2014-3-23,54.7,47.1,39.0,39.8,34.0,23.4,78,61,41,30.17,29.93,20,6,0,0.14
2014-3-24,74.3,53.9,35.1,48.4,40.7,32.2,93,65,38,30.07,29.81,7,2,0,0.00
2014-3-25,68.4,54.7,42.1,42.7,30.1,22.5,77,43,19,30.21,29.96,16,6,0,0.00
2014-3-26,62.2,55.7,48.2,52.1,41.4,23.3,75,60,35,30.00,29.67,11,7,0,0.02
2014-3-27,88.3,71.9,59.7,60.0,46.3,23.9,82,49,10,29.67,29.48,17,7,0,0.00
2014-3-28,85.8,68.5,56.1,62.9,47.9,31.1,92,54,15,29.90,29.55,16,5,0,0.02
2014-3-29,79.7,61.0,43.0,40.0,31.4,21.4,72,40,12,30.14,29.90,10,5,0,0.00
2014-3-30,84.9,65.5,44.2,49.0,35.5,30.1,68,38,15,30.03,29.70,15,6,0,0.00
2014-3-31,90.9,71.6,55.6,58.4,51.3,44.2,78,53,20,29.73,29.58,12,5,0,0.00
2014-4-1,86.9,73.6,59.4,62.4,58.7,55.0,92,62,38,29.77,29.56,14,5,0,0.00
2014-4-2,84.4,74.2,68.9,67.9,63.2,60.7,76,69,56,29.63,29.46,13,5,0,0.00
2014-4-3,92.1,78.2,68.4,68.0,55.8,8.1,87,55,9,29.74,29.42,14,5,0,0.00
2014-4-4,72.3,58.7,43.9,34.9,27.6,11.0,59,33,11,30.03,29.74,19,8,0,0.00
2014-4-5,68.0,55.9,49.1,39.4,32.1,23.3,55,42,19,29.94,29.69,17,6,0,0.00
2014-4-6,58.3,51.7,47.7,48.6,44.4,39.5,87,77,55,29.73,29.55,11,5,0,0.17
2014-4-7,75.7,52.1,41.0,50.4,45.7,39.9,98,81,38,29.90,29.59,10,1,0,0.28
2014-4-8,78.6,59.7,39.9,43.9,35.0,28.3,86,47,17,30.07,29.89,14,4,0,0.00
2014-4-9,90.5,67.8,42.6,39.7,34.3,28.1,71,35,11,30.04,29.79,11,3,0,0.00
2014-4-10,95.9,76.1,58.3,47.9,44.5,36.7,67,36,15,29.86,29.61,10,4,0,0.00
2014-4-11,94.1,75.2,57.0,58.8,54.0,45.8,84,52,25,29.80,29.64,10,4,0,0.00
2014-4-12,88.7,74.9,61.3,61.0,57.8,54.7,80,57,37,29.74,29.53,12,5,0,0.00
2014-4-13,82.2,70.6,63.1,66.6,61.2,56.1,90,73,56,29.63,29.40,11,5,0,0.29
2014-4-14,65.1,50.9,42.3,60.5,33.6,22.0,87,53,31,30.12,29.49,20,11,0,0.00
2014-4-15,70.3,49.8,27.9,25.8,20.8,14.2,73,37,13,30.20,29.88,9,3,0,0.00
2014-4-16,76.8,58.1,39.4,44.9,31.4,25.7,61,39,20,29.90,29.65,12,6,0,0.00
2014-4-17,63.0,57.9,54.1,55.7,51.0,44.8,86,78,60,30.02,29.75,11,5,0,0.00
2014-4-18,79.3,65.2,55.8,54.7,52.0,48.5,88,65,37,30.06,29.90,7,2,0,0.00
2014-4-19,79.5,66.8,51.4,55.7,50.6,46.2,84,58,39,29.99,29.83,14,4,0,0.00
2014-4-20,75.6,66.7,60.1,61.8,57.1,51.7,90,72,58,29.95,29.82,9,4,0,0.09
2014-4-21,91.6,74.7,62.2,64.7,59.7,50.9,95,65,26,29.86,29.71,14,3,0,0.00
2014-4-22,89.4,72.5,55.9,58.8,51.5,43.1,93,54,21,29.91,29.72,11,3,0,0.00
2014-4-23,93.0,74.8,54.1,61.8,55.8,47.2,88,55,28,29.77,29.46,14,4,0,0.00
2014-4-24,86.7,74.9,61.3,61.8,46.5,32.6,72,43,16,29.78,29.54,14,5,0,0.00
2014-4-25,91.8,71.9,48.0,52.8,43.1,36.6,70,40,17,29.85,29.63,12,4,0,0.00
2014-4-26,90.7,76.4,64.6,63.3,59.8,53.1,79,58,36,29.68,29.40,14,6,0,0.00
2014-4-27,91.6,80.2,69.6,66.1,44.7,19.7,79,39,10,29.42,29.25,25,7,0,0.00
2014-4-28,88.9,72.0,50.0,31.2,24.9,18.1,44,20,9,29.55,29.39,17,4,0,0.00
2014-4-29,79.0,66.1,54.1,38.9,29.1,20.5,49,28,12,29.84,29.46,16,6,0,0.00
2014-4-30,72.0,58.7,47.8,33.2,29.8,23.8,53,35,18,30.02,29.84,18,6,0,0.00
2014-5-1,78.3,59.4,36.3,34.8,26.5,21.2,70,35,13,30.03,29.85,9,2,0,0.00
2014-5-2,84.4,64.0,41.9,34.6,27.9,18.2,65,31,9,29.92,29.73,11,3,0,0.00
2014-5-3,97.7,70.8,40.8,34.1,27.7,19.6,67,28,6,29.88,29.74,10,2,0,0.00
2014-5-4,97.2,77.6,55.9,38.0,31.8,24.5,38,21,8,29.88,29.68,14,4,0,0.00
2014-5-5,101.3,80.6,58.3,56.8,48.3,36.8,65,36,15,29.77,29.51,12,4,0,0.00
2014-5-6,99.5,80.5,62.1,61.3,57.3,51.8,70,48,23,29.61,29.42,17,5,0,0.00
2014-5-7,97.5,80.9,68.7,63.8,61.2,59.0,75,54,31,29.66,29.46,14,6,0,0.00
2014-5-8,95.0,79.3,71.4,67.8,62.1,56.3,73,58,28,29.66,29.51,14,5,0,0.00
2014-5-9,92.7,77.6,64.0,66.2,50.5,31.6,94,49,12,29.76,29.59,7,2,0,0.00
2014-5-10,99.9,79.0,58.6,61.9,55.8,51.2,77,49,20,29.72,29.49,14,5,0,0.00
2014-5-11,97.7,81.4,68.0,63.7,60.9,57.4,73,53,27,29.61,29.41,16,7,0,0.00
2014-5-12,90.5,71.2,59.5,69.3,59.5,49.3,85,67,50,29.83,29.51,13,6,0,0.93
2014-5-13,63.7,57.1,49.3,49.2,42.2,37.3,83,59,40,30.14,29.82,15,8,0,0.23
2014-5-14,75.9,59.8,43.9,46.2,36.5,25.2,90,51,16,30.15,30.00,12,4,0,0.02
2014-5-15,89.1,71.5,43.9,41.0,27.1,14.8,77,26,7,30.10,29.87,10,3,0,0.00
2014-5-16,95.4,73.0,46.0,42.7,33.8,26.4,72,30,10,29.95,29.67,14,3,0,0.00
2014-5-17,92.3,76.7,58.6,53.3,46.0,29.0,53,35,20,29.81,29.67,12,4,0,0.00
2014-5-18,89.6,75.6,61.3,57.9,54.7,49.1,74,50,33,29.88,29.72,15,6,0,0.00
2014-5-19,92.5,76.8,62.4,59.1,55.8,52.9,71,51,29,29.82,29.68,14,6,0,0.00
2014-5-20,93.6,79.0,63.5,59.1,56.1,52.4,74,48,25,29.84,29.73,15,5,0,0.00
2014-5-21,94.5,80.3,68.5,60.2,58.5,56.2,70,50,31,29.86,29.74,14,5,0,0.00
2014-5-22,90.9,78.8,65.8,65.3,61.1,56.6,75,56,37,29.90,29.75,14,4,0,0.00
2014-5-23,87.6,74.9,62.4,63.8,61.3,58.8,89,64,44,29.92,29.76,11,5,0,1.37
2014-5-24,82.2,72.3,64.2,68.4,65.2,61.2,90,79,61,29.87,29.74,10,4,0,0.18
2014-5-25,74.8,66.2,62.8,65.1,61.7,59.0,94,86,67,29.88,29.76,18,4,0,3.47
2014-5-26,85.1,70.3,60.8,64.1,60.0,56.3,92,73,40,29.87,29.71,14,4,0,0.81
2014-5-27,88.0,70.7,60.1,68.8,63.4,57.8,95,79,50,29.83,29.64,11,2,0,2.15
2014-5-28,86.5,73.3,61.9,63.7,61.5,59.2,94,69,44,29.79,29.69,12,3,0,0.01
2014-5-29,90.5,76.5,61.3,65.8,61.0,58.0,94,63,37,29.77,29.66,8,2,0,0.00
2014-5-30,93.0,78.8,63.7,67.0,62.7,59.4,93,62,34,29.74,29.65,7,2,0,0.00
2014-5-31,92.3,79.8,65.7,68.0,63.8,61.0,90,61,40,29.79,29.68,9,3,0,0.00
2014-6-1,94.8,81.4,67.1,69.7,65.7,62.9,93,62,39,29.79,29.62,12,4,0,0.00
2014-6-2,92.7,80.8,70.5,68.1,64.8,62.2,75,60,42,29.81,29.66,12,4,0,0.00
2014-6-3,95.5,80.8,70.3,68.3,65.8,63.5,88,62,39,29.85,29.71,10,4,0,0.00
2014-6-4,97.0,83.0,70.3,70.5,66.7,63.9,85,60,40,29.73,29.60,9,4,0,0.00
2014-6-5,96.6,81.7,70.9,70.9,66.8,63.2,78,62,42,29.66,29.58,10,3,0,0.00
2014-6-6,93.7,82.6,71.6,69.7,66.0,63.5,77,59,40,29.78,29.61,13,5,0,0.00
2014-6-7,95.0,83.6,72.0,68.3,65.3,63.3,75,56,38,29.79,29.62,17,5,0,0.00
2014-6-8,93.2,78.6,66.2,69.7,66.1,60.2,84,66,46,29.86,29.61,13,3,0,0.18
2014-6-9,86.2,74.7,60.8,66.6,62.0,56.3,87,66,42,29.72,29.56,18,3,0,0.62
2014-6-10,91.4,74.7,61.0,60.0,56.3,51.9,74,55,30,29.78,29.67,11,3,0,0.00
2014-6-11,97.9,80.1,61.0,71.1,62.5,55.1,83,58,34,29.74,29.54,13,3,0,0.00
2014-6-12,93.2,82.1,75.6,73.0,67.8,56.4,71,62,48,29.77,29.53,12,6,0,0.00
2014-6-13,92.3,80.5,68.9,70.3,66.8,63.3,85,64,48,29.86,29.70,11,4,0,0.00
2014-6-14,91.4,77.7,66.6,70.1,65.5,60.2,85,68,49,29.82,29.59,23,4,0,0.18
2014-6-15,94.8,83.0,72.0,70.7,66.9,64.1,77,60,44,29.75,29.62,12,6,0,0.00
2014-6-16,95.2,83.7,72.5,69.8,66.2,63.1,75,57,38,29.82,29.70,12,5,0,0.00
2014-6-17,95.9,83.2,74.7,71.3,67.5,64.7,75,60,41,29.83,29.69,12,5,0,0.00
2014-6-18,93.6,81.5,73.2,71.9,67.2,64.3,75,63,46,29.81,29.69,12,5,0,0.00
2014-6-19,93.6,82.1,73.6,70.5,66.5,63.7,73,60,42,29.87,29.75,10,4,0,0.00
2014-6-20,92.1,81.5,72.5,68.3,64.4,60.3,72,57,36,29.94,29.82,7,3,0,0.00
2014-6-21,89.4,79.4,72.7,70.3,65.6,62.8,77,63,45,29.88,29.72,8,2,0,0.02
2014-6-22,93.4,81.7,74.1,72.7,67.9,64.2,73,64,49,29.76,29.61,9,4,0,0.00
2014-6-23,94.5,78.9,65.7,70.3,66.5,60.4,86,67,45,29.85,29.65,14,3,0,0.28
2014-6-24,90.0,78.2,71.4,70.8,65.9,61.5,83,67,43,29.91,29.79,10,4,0,0.07
2014-6-25,97.3,79.0,69.1,72.0,67.3,61.6,93,69,40,29.88,29.74,15,4,0,0.00
2014-6-26,94.8,79.5,68.0,69.0,66.5,65.1,94,68,39,29.85,29.63,14,4,0,0.00
2014-6-27,95.5,82.4,73.2,69.7,66.7,64.4,75,61,41,29.71,29.56,14,6,0,0.00
2014-6-28,96.1,84.2,75.6,70.8,68.3,66.2,73,60,43,29.73,29.62,16,6,0,0.00
2014-6-29,99.0,86.3,74.1,69.7,67.4,64.3,77,56,34,29.81,29.71,12,5,0,0.00
2014-6-30,100.2,85.7,71.1,69.0,63.8,55.5,77,52,23,29.81,29.63,11,5,0,0.00
2014-7-1,99.5,85.8,72.5,68.6,63.4,57.4,76,51,26,29.83,29.67,11,4,0,0.00
2014-7-2,102.0,83.5,71.1,67.7,63.8,55.5,74,54,23,29.91,29.81,13,4,0,0.00
2014-7-3,95.7,79.8,68.7,68.1,64.3,59.8,78,60,36,29.99,29.90,13,4,0,0.00
2014-7-4,98.6,81.8,66.4,67.3,63.1,59.8,81,56,32,30.03,29.93,12,4,0,0.00
2014-7-5,99.5,83.9,66.6,67.6,61.9,58.1,78,51,28,30.03,29.86,10,4,0,0.00
2014-7-6,100.4,84.4,68.7,67.8,63.0,59.4,79,52,27,29.91,29.73,9,4,0,0.00
2014-7-7,102.0,86.9,71.6,67.7,59.7,50.3,71,44,19,29.85,29.71,10,3,0,0.00
2014-7-8,104.4,87.3,71.6,68.0,60.9,54.7,72,45,23,29.86,29.76,9,3,0,0.00
2014-7-9,102.2,86.6,72.0,66.5,60.6,55.5,70,45,23,29.91,29.74,8,3,0,0.00
2014-7-10,102.7,85.8,71.1,66.6,58.9,52.9,72,44,21,29.90,29.73,11,4,0,0.00
2014-7-11,96.6,82.4,69.8,66.4,60.1,53.0,70,49,24,29.96,29.85,12,4,0,0.00
2014-7-12,101.1,85.2,66.2,64.8,54.3,46.6,75,40,17,30.02,29.84,14,4,0,0.00
2014-7-13,106.0,87.3,69.1,65.9,58.3,52.9,68,41,20,29.96,29.77,8,2,0,0.00
2014-7-14,108.7,88.1,72.1,66.3,60.2,52.4,65,43,17,29.88,29.70,8,3,0,0.00
2014-7-15,94.8,81.7,71.2,69.7,64.8,61.5,75,58,41,29.87,29.78,14,3,0,0.00
2014-7-16,97.0,80.9,71.6,69.4,64.5,57.5,81,59,35,29.86,29.64,11,4,0,0.14
2014-7-17,87.6,75.6,66.9,72.7,68.8,64.7,95,81,58,29.77,29.65,10,3,0,0.90
2014-7-18,81.7,72.7,66.9,65.6,62.8,60.2,81,72,55,29.85,29.77,10,4,0,0.00
2014-7-19,94.1,76.6,62.4,69.7,64.5,59.4,96,69,42,29.87,29.74,8,2,0,0.00
2014-7-20,99.5,82.7,68.9,73.8,67.9,62.8,84,63,39,29.87,29.71,8,3,0,0.00
2014-7-21,101.1,87.4,75.7,75.0,70.0,66.4,82,59,37,29.87,29.76,9,4,0,0.00
2014-7-22,101.5,86.8,73.9,73.0,68.1,65.6,79,56,33,29.90,29.82,6,3,0,0.00
2014-7-23,99.7,86.2,71.8,73.2,67.0,63.5,80,55,35,29.96,29.81,8,3,0,0.00
2014-7-24,99.0,85.5,71.1,70.2,65.8,62.9,77,54,35,29.90,29.75,9,3,0,0.00
2014-7-25,101.7,85.1,68.7,70.1,64.7,61.0,81,54,29,29.87,29.72,9,3,0,0.00
2014-7-26,104.5,87.9,72.7,70.5,65.1,61.2,73,49,26,29.85,29.70,12,4,0,0.00
2014-7-27,104.4,89.2,73.9,68.8,64.2,61.1,72,46,25,29.88,29.78,8,3,0,0.00
2014-7-28,101.5,84.5,74.1,69.1,65.4,62.2,69,54,30,29.97,29.86,13,3,0,0.00
2014-7-29,96.6,82.6,70.2,69.7,64.2,58.9,75,55,41,29.97,29.83,16,4,0,0.00
2014-7-30,103.6,92.6,78.6,63.5,54.7,51.7,60,30,18,29.88,29.66,9,4,0,0.00
2014-7-31,86.9,77.8,71.8,65.8,62.3,56.2,72,60,41,29.89,29.74,10,4,0,0.00
2014-8-1,91.2,77.9,65.3,63.2,60.2,57.8,79,57,34,29.91,29.80,11,4,0,0.00
2014-8-2,92.7,77.6,62.8,64.9,59.9,57.1,90,58,32,29.96,29.83,9,3,0,0.00
2014-8-3,95.4,80.1,63.5,65.8,59.1,53.2,80,53,25,29.96,29.81,12,3,0,0.00
2014-8-4,97.5,83.1,66.7,68.6,62.0,58.8,81,52,28,29.92,29.77,7,3,0,0.00
2014-8-5,101.7,85.5,69.3,68.8,61.8,54.4,79,49,23,29.92,29.78,10,3,0,0.00
2014-8-6,105.1,88.0,74.1,67.8,62.1,53.3,72,46,20,29.86,29.68,9,3,0,0.00
2014-8-7,106.3,89.7,73.0,70.0,61.8,57.7,68,42,21,29.77,29.61,10,3,0,0.00
2014-8-8,107.8,90.2,76.1,69.8,61.7,54.2,70,42,20,29.80,29.64,11,3,0,0.00
2014-8-9,105.6,88.8,73.9,66.6,59.3,50.8,70,41,17,29.85,29.70,9,3,0,0.00
2014-8-10,106.2,89.0,74.3,65.3,59.6,55.7,66,41,20,29.88,29.72,10,3,0,0.00
2014-8-11,100.6,83.4,74.1,66.4,63.9,62.2,71,54,30,29.93,29.80,10,3,0,0.00
2014-8-12,99.0,82.7,69.8,67.5,60.4,44.9,80,52,19,29.95,29.80,7,2,0,0.00
2014-8-13,100.8,82.8,63.7,57.9,54.9,51.9,69,42,22,29.96,29.81,8,2,0,0.00
2014-8-14,102.2,83.4,65.5,60.3,56.9,54.4,71,44,23,29.91,29.75,10,3,0,0.00
2014-8-15,104.7,87.3,68.2,65.0,58.6,53.0,72,42,19,29.84,29.65,8,3,0,0.00
2014-8-16,106.7,89.1,73.8,68.3,59.5,51.7,63,40,18,29.80,29.65,12,3,0,0.00
2014-8-17,93.9,84.5,77.7,67.0,63.0,58.1,61,49,36,29.83,29.73,9,3,0,0.00
2014-8-18,90.1,77.3,72.0,70.6,65.0,61.5,76,66,53,29.83,29.69,8,2,0,0.01
2014-8-19,95.5,81.1,70.2,69.0,65.0,58.8,87,61,31,29.77,29.63,11,3,0,0.03
2014-8-20,102.0,86.9,73.9,67.7,60.9,53.4,70,45,21,29.79,29.67,13,4,0,0.00
2014-8-21,102.6,88.3,75.2,71.0,63.0,54.2,71,47,21,29.85,29.74,12,4,0,0.00
2014-8-22,104.7,88.7,74.1,69.0,57.9,43.0,76,42,13,29.89,29.74,10,4,0,0.00
2014-8-23,103.6,86.7,69.1,62.1,57.7,52.5,66,40,19,29.84,29.69,12,3,0,0.00
2014-8-24,104.9,87.9,71.8,67.5,59.8,51.9,69,43,18,29.80,29.65,10,3,0,0.00
2014-8-25,105.8,88.9,71.8,65.9,59.6,53.9,68,40,21,29.82,29.66,9,4,0,0.00
2014-8-26,104.4,87.5,70.2,64.5,60.7,55.6,69,43,23,29.88,29.72,13,3,0,0.00
2014-8-27,103.1,86.5,73.2,68.7,63.2,59.1,72,48,26,29.89,29.74,10,3,0,0.00
2014-8-28,103.3,86.5,69.8,66.3,59.8,55.5,66,43,23,29.84,29.61,11,4,0,0.00
2014-8-29,97.9,81.8,68.2,72.2,67.1,62.0,94,65,33,29.80,29.63,11,4,0,1.08
2014-8-30,98.8,84.3,73.2,70.9,66.5,61.7,78,58,31,29.80,29.67,11,3,0,0.00
2014-8-31,101.3,88.7,71.8,69.1,64.8,62.1,77,48,30,29.81,29.65,13,3,0,0.00
2014-9-1,104.2,88.0,73.8,68.5,64.6,60.2,73,49,24,29.74,29.61,14,4,0,0.00
2014-9-2,102.4,87.7,73.9,69.7,65.5,60.6,73,50,28,29.78,29.66,13,5,0,0.00
2014-9-3,99.0,84.8,73.8,68.7,65.6,59.8,73,55,29,29.82,29.70,16,4,0,0.00
2014-9-4,98.8,83.4,68.9,69.2,64.2,60.0,82,55,29,29.87,29.74,11,4,0,0.00
2014-9-5,99.1,84.5,72.0,70.2,64.4,57.9,80,54,27,29.92,29.75,10,4,0,0.00
2014-9-6,94.3,81.1,70.0,71.6,64.9,61.7,75,59,40,29.95,29.81,12,4,0,0.00
2014-9-7,87.8,75.3,67.8,67.7,63.7,60.0,78,68,51,29.96,29.83,9,4,0,0.00
2014-9-8,98.8,81.7,65.7,69.4,64.1,61.7,92,60,32,29.89,29.72,8,2,0,0.00
2014-9-9,101.7,86.3,72.1,68.0,63.6,60.7,73,50,28,29.81,29.60,11,3,0,0.00
2014-9-10,104.5,88.2,74.3,69.0,64.9,62.0,73,49,27,29.67,29.53,14,4,0,0.00
2014-9-11,91.9,81.5,71.4,69.4,65.8,62.3,73,60,45,29.85,29.68,10,4,0,0.00
2014-9-12,77.2,68.8,57.7,64.1,59.7,51.1,82,73,64,30.06,29.83,18,7,0,0.00
2014-9-13,73.0,61.3,54.9,54.3,51.3,48.3,83,70,51,30.11,29.99,16,6,0,0.00
2014-9-14,91.4,73.5,63.0,62.7,58.3,53.3,73,60,38,30.06,29.91,6,3,0,0.00
2014-9-15,83.7,74.5,67.6,67.3,63.8,60.2,82,70,55,29.99,29.89,7,2,0,0.01
2014-9-16,92.7,79.8,69.6,69.1,64.9,62.1,80,63,40,29.97,29.78,7,2,0,0.00
2014-9-17,98.2,79.6,71.4,70.6,66.6,64.1,83,67,34,29.85,29.65,15,3,0,0.03
2014-9-18,88.3,75.9,69.1,72.0,68.2,64.4,93,78,55,29.75,29.65,11,3,0,0.30
2014-9-19,86.2,75.5,69.4,70.5,68.9,65.7,97,81,59,29.78,29.69,8,3,0,0.01
2014-9-20,90.0,77.3,72.1,71.0,68.5,65.7,87,75,51,29.86,29.75,11,3,0,0.00
2014-9-21,93.4,79.5,68.7,70.5,65.2,61.7,87,64,40,29.95,29.82,7,2,0,0.00
2014-9-22,91.9,78.3,66.7,68.3,63.1,57.7,86,62,38,30.02,29.88,8,3,0,0.00
2014-9-23,90.5,77.1,65.1,57.7,53.9,50.9,60,46,31,30.00,29.85,8,4,0,0.00
2014-9-24,87.3,71.8,57.6,55.2,49.5,40.6,74,49,20,30.00,29.88,8,2,0,0.00
2014-9-25,88.5,70.5,54.3,59.2,51.2,45.1,76,54,24,30.02,29.88,11,2,0,0.00
2014-9-26,86.4,74.4,64.6,60.8,58.8,57.0,82,60,40,29.98,29.83,10,3,0,0.00
2014-9-27,87.3,75.1,65.7,63.8,58.2,55.4,75,57,36,29.91,29.78,11,2,0,0.00
2014-9-28,86.4,74.4,60.8,63.1,58.4,55.4,89,60,37,29.90,29.79,8,2,0,0.00
2014-9-29,91.2,75.2,59.5,60.7,55.4,52.2,81,54,30,29.87,29.71,8,2,0,0.00
2014-9-30,93.9,77.4,58.6,61.8,56.5,51.4,80,52,29,29.74,29.54,10,3,0,0.00
2014-10-1,97.7,81.6,67.8,67.7,62.9,59.2,79,56,31,29.64,29.51,11,4,0,0.00
2014-10-2,99.1,81.5,68.7,69.7,59.7,48.4,75,51,21,29.83,29.56,17,5,0,0.00
2014-10-3,87.3,70.1,49.8,52.5,42.6,33.5,76,43,15,30.06,29.83,11,3,0,0.00
2014-10-4,85.6,67.5,48.4,47.4,40.9,32.3,69,42,18,30.07,29.76,10,3,0,0.00
2014-10-5,90.1,73.5,56.7,60.5,54.1,44.7,72,52,35,29.78,29.56,10,4,0,0.00
2014-10-6,95.2,78.8,62.6,65.3,60.9,55.6,90,58,29,29.72,29.60,11,3,0,0.00
2014-10-7,100.9,81.7,64.8,67.5,56.3,35.8,95,51,11,29.77,29.64,11,3,0,0.00
2014-10-8,94.6,79.7,66.0,67.4,59.4,54.4,85,53,27,29.83,29.70,14,4,0,0.00
2014-10-9,94.8,81.1,70.2,67.8,61.1,57.0,81,54,30,29.78,29.63,10,4,0,0.00
2014-10-10,95.4,80.7,62.2,65.5,62.1,56.6,85,56,32,29.80,29.60,23,5,0,0.33
2014-10-11,68.0,57.9,52.3,56.1,50.7,48.0,93,78,55,29.97,29.81,14,4,0,1.26
2014-10-12,85.3,66.4,50.0,64.6,56.8,48.3,96,74,49,29.86,29.46,10,3,0,0.00
2014-10-13,73.4,64.8,52.9,66.1,47.1,38.8,89,55,33,29.90,29.42,18,6,0,0.40
2014-10-14,79.2,61.8,46.9,43.9,38.1,31.0,74,47,19,30.00,29.86,9,3,0,0.00
2014-10-15,87.4,64.7,44.8,45.9,40.2,32.6,86,49,15,29.95,29.79,8,2,0,0.00
2014-10-16,92.7,69.2,48.6,46.9,42.6,39.2,73,44,16,29.81,29.61,8,2,0,0.00
2014-10-17,89.8,69.9,49.8,54.4,48.1,41.9,76,49,25,29.79,29.66,8,2,0,0.00
2014-10-18,84.6,69.6,56.3,58.6,54.9,50.0,86,62,40,29.91,29.78,8,3,0,0.00
2014-10-19,81.7,69.8,59.2,61.7,57.2,53.4,85,65,48,29.95,29.82,7,3,0,0.00
2014-10-20,83.1,68.2,56.7,62.5,57.0,53.1,96,71,40,29.93,29.78,6,2,0,0.00
2014-10-21,83.7,67.7,52.2,59.9,51.7,47.5,97,61,31,29.93,29.79,11,2,0,0.00
2014-10-22,83.1,70.3,59.7,55.7,51.9,47.0,70,54,35,29.96,29.85,10,2,0,0.00
2014-10-23,86.0,71.5,60.8,61.0,56.6,52.8,76,61,37,29.97,29.83,7,2,0,0.00
2014-10-24,88.7,72.3,58.3,60.3,56.4,53.0,91,60,32,29.99,29.85,9,2,0,0.00
2014-10-25,90.5,72.8,58.1,60.3,54.7,49.1,86,57,25,29.99,29.85,10,2,0,0.00
2014-10-26,89.8,72.8,57.6,58.5,51.0,46.5,74,50,23,29.88,29.64,14,3,0,0.00
2014-10-27,89.1,72.6,57.2,60.4,54.8,48.9,78,56,35,29.70,29.53,10,4,0,0.00
2014-10-28,79.2,68.8,59.7,55.9,51.6,46.1,70,55,41,29.94,29.68,12,3,0,0.00
2014-10-29,79.9,66.2,56.3,52.6,47.7,43.8,71,53,35,30.04,29.89,10,3,0,0.00
2014-10-30,85.3,67.4,53.2,61.7,53.6,44.8,76,63,38,30.02,29.86,11,2,0,0.00
2014-10-31,71.2,61.2,50.0,58.2,40.1,31.5,74,49,24,30.21,30.02,11,4,0,0.00
2014-11-1,68.9,53.4,38.5,37.0,33.5,29.5,75,50,24,30.24,30.06,9,4,0,0.00
2014-11-2,72.1,60.3,48.9,51.0,45.6,35.8,72,59,44,30.10,29.94,13,6,0,0.00
2014-11-3,75.9,67.8,61.2,58.6,55.1,48.5,69,64,54,29.96,29.85,10,5,0,0.00
2014-11-4,69.3,59.5,51.4,60.2,54.4,49.7,96,84,68,30.06,29.84,16,5,0,2.14
2014-11-5,55.2,52.3,50.2,52.9,50.7,49.1,96,94,90,30.10,29.99,7,3,0,0.46
2014-11-6,72.0,56.0,43.3,50.5,44.0,39.5,96,69,33,30.22,30.10,9,2,0,0.01
2014-11-7,71.4,54.9,39.2,46.3,40.2,32.8,96,63,33,30.14,29.86,7,1,0,0.00
2014-11-8,70.2,56.1,43.0,48.3,41.4,36.3,95,61,34,30.05,29.85,17,4,0,0.00
2014-11-9,77.4,56.0,36.5,46.7,38.6,34.3,96,59,22,30.02,29.68,14,2,0,0.00
2014-11-10,82.9,66.1,52.0,51.1,47.3,40.5,72,53,31,29.68,29.45,14,4,0,0.00
2014-11-11,59.9,42.7,35.2,51.2,26.1,21.4,75,52,39,30.11,29.56,17,7,0,0.00
2014-11-12,41.5,34.1,29.3,21.6,13.8,7.5,58,43,33,30.34,30.11,14,9,0,0.00
2014-11-13,36.3,30.3,24.3,12.3,5.7,0.9,58,36,25,30.45,30.29,15,6,0,0.00
2014-11-14,45.3,35.1,24.1,18.3,13.2,7.5,59,41,31,30.31,30.04,8,3,0,0.00
2014-11-15,61.9,44.5,29.8,44.3,31.9,18.3,85,62,47,30.04,29.77,16,4,0,0.00
2014-11-16,50.0,40.0,26.4,46.9,36.1,21.4,90,86,80,30.16,29.73,14,6,0,0.00
2014-11-17,46.8,32.2,19.8,22.0,16.5,10.2,85,57,23,30.32,30.13,12,3,0,0.00
2014-11-18,58.1,39.2,19.4,23.1,14.9,8.0,78,43,14,30.35,30.13,13,2,0,0.00
2014-11-19,69.8,47.9,29.8,36.7,25.2,15.6,66,44,18,30.14,29.93,10,3,0,0.00
2014-11-20,75.7,55.9,38.3,50.3,41.6,30.2,87,62,29,29.97,29.77,11,2,0,0.00
2014-11-21,77.4,63.9,52.0,60.3,54.9,48.6,97,75,43,29.93,29.79,11,3,0,0.00
2014-11-22,65.3,61.3,51.4,62.0,57.8,50.3,96,89,78,29.85,29.52,14,6,0,0.86
2014-11-23,76.5,57.8,45.3,53.3,41.0,30.3,99,62,19,29.73,29.30,18,6,0,0.01
2014-11-24,60.1,46.5,36.1,33.8,27.4,16.1,74,51,19,30.03,29.73,8,2,0,0.00
2014-11-25,62.6,44.5,30.2,33.0,26.5,20.1,86,55,20,30.21,29.98,10,2,0,0.00
2014-11-26,65.3,49.8,36.5,34.3,28.0,24.0,70,46,23,30.23,29.94,9,3,0,0.00
2014-11-27,63.9,48.6,36.9,32.9,27.9,22.9,72,48,24,30.40,30.18,8,2,0,0.00
2014-11-28,73.4,53.6,36.1,48.2,37.6,26.9,71,57,32,30.17,29.85,14,3,0,0.00
2014-11-29,77.7,62.4,49.8,50.3,46.2,41.3,74,57,31,29.85,29.68,15,4,0,0.00
2014-11-30,80.1,65.5,55.2,56.7,53.7,48.6,90,68,40,29.94,29.76,11,3,0,0.00
2014-12-1,55.8,36.7,30.9,52.6,18.6,11.9,90,49,38,30.35,29.94,21,8,0,0.00
2014-12-2,52.2,43.8,34.9,39.9,22.5,10.9,71,44,28,30.28,29.96,7,3,0,0.00
2014-12-3,65.7,56.1,48.9,52.8,47.3,39.9,81,73,63,30.00,29.89,9,5,0,0.00
2014-12-4,73.6,62.3,56.5,58.5,55.1,51.2,95,78,52,30.00,29.82,10,3,0,0.00
2014-12-5,78.6,66.3,53.6,61.7,54.2,44.8,96,69,37,30.08,29.82,13,4,0,0.00
2014-12-6,68.0,56.9,45.5,48.0,44.7,38.7,84,65,43,30.26,30.08,9,4,0,0.00
2014-12-7,55.9,49.7,44.4,46.3,43.5,39.3,91,80,67,30.24,30.07,7,2,0,0.00
2014-12-8,73.6,51.7,38.8,50.2,43.5,37.7,98,77,41,30.23,30.09,6,1,0,0.00
2014-12-9,71.4,51.8,36.9,50.7,43.0,35.9,98,75,43,30.22,30.06,6,1,0,0.00
2014-12-10,65.7,56.0,45.7,48.8,43.6,39.3,84,65,42,30.06,29.94,7,2,0,0.00
2014-12-11,62.6,58.2,55.4,58.1,55.1,48.1,95,89,71,30.03,29.96,6,2,0,0.02
2014-12-12,70.3,61.9,56.3,59.9,56.1,53.3,97,82,63,30.10,29.97,9,4,0,0.00
2014-12-13,66.4,59.7,54.1,56.3,53.7,51.5,96,81,68,30.03,29.84,11,5,0,0.00
2014-12-14,73.0,61.7,57.0,60.0,54.8,51.8,86,79,63,29.83,29.61,16,5,0,0.11
2014-12-15,67.1,54.7,38.7,52.4,34.8,28.0,86,50,24,30.04,29.71,10,4,0,0.00
2014-12-16,59.9,47.8,36.7,32.8,29.7,25.8,73,51,32,30.24,30.04,10,4,0,0.00
2014-12-17,50.0,47.8,46.4,46.3,36.5,31.3,95,66,50,30.07,29.87,10,4,0,0.00
2014-12-18,70.3,55.2,47.7,50.8,46.5,40.7,98,76,39,29.99,29.86,11,3,0,0.01
2014-12-19,57.6,48.6,44.4,44.9,41.3,38.7,90,76,62,30.04,29.93,9,4,0,0.15
2014-12-20,57.0,47.2,39.2,41.9,39.2,34.6,86,74,55,30.08,29.95,5,2,0,0.00
2014-12-21,57.9,49.0,40.8,45.8,42.2,37.2,88,78,63,29.99,29.55,10,4,0,0.00
2014-12-22,68.0,56.1,46.6,45.9,40.6,35.4,88,60,30,29.54,29.44,12,5,0,0.00
2014-12-23,53.8,45.7,41.2,41.1,34.6,27.6,89,67,48,29.84,29.49,14,7,0,0.35
2014-12-24,54.7,42.6,33.1,29.1,25.6,18.8,69,53,25,29.99,29.84,16,6,0,0.00
2014-12-25,65.5,47.9,32.0,31.4,24.2,19.8,67,43,18,29.84,29.66,16,6,0,0.00
2014-12-26,74.5,58.5,43.9,52.3,46.2,31.9,88,65,42,29.81,29.63,14,4,0,0.00
2014-12-27,53.6,40.0,32.9,50.1,29.9,23.8,88,67,59,30.16,29.80,16,9,0,0.00
2014-12-28,55.8,39.8,31.5,25.2,23.1,20.2,71,54,27,30.16,29.93,7,2,0,0.00
2014-12-29,66.9,44.8,28.2,35.6,29.4,21.6,77,58,28,29.99,29.82,10,2,0,0.00
2014-12-30,40.5,36.8,27.9,38.1,32.1,21.3,95,83,70,30.37,29.98,14,6,0,0.00
2014-12-31,28.6,25.7,22.6,21.1,18.5,16.2,77,74,69,30.44,30.21,14,7,0,0.00
2015-1-1,33.6,30.3,27.1,30.6,26.4,21.1,93,86,77,30.21,29.97,7,3,0,0.09
2015-1-2,35.2,33.7,32.2,33.9,32.5,30.6,97,95,93,30.04,29.78,10,4,0,0.42